MMTC/TRC METAR and TAF weather

Enter ICAO airport designator
Station Type Date Time Source
MMTC METAR 2021/09/23 22:40 UTC NOAA

MMTC 232240Z 08004KT 10SM FEW020 30/11 A3000 RMK 8/100 CI


Station Type Date Time Source
MMTC Decoded METAR 2021/09/23 22:40 UTC NOAA

Torreon, Coah., Mexico (MMTC) 25-32N 103-27W 1150M
Sep 23, 2021 - 06:40 PM EDT / 2021.09.23 2240 UTC
Wind: from the E (080 degrees) at 5 MPH (4 KT):0
Visibility: 10 mile(s):0
Sky conditions: mostly clear
Temperature: 86 F (30 C)
Dew Point: 51 F (11 C)
Relative Humidity: 30%
Pressure (altimeter): 30 in. Hg (1015 hPa)
ob: MMTC 232240Z 08004KT 10SM FEW020 30/11 A3000 RMK 8/100 CI
cycle: 22

Station Type Date Time Source
MMTC TAF 2021/09/23 18:39 UTC NOAA

TAF TAF MMTC 231636Z 2318/2418 06010KT P6SM SCT030
FM240300 00000KT P6SM SKC

Example: see airport list